sensor_id;sensor_type;location;lat;lon;timestamp;P1;durP1;ratioP1;P2;durP2;ratioP2
8702;SDS011;9002;42.708;23.186;2024-03-17T00:01:37;29.35;;;16.70;;
8702;SDS011;9002;42.708;23.186;2024-03-17T00:04:06;24.02;;;15.68;;
8702;SDS011;9002;42.708;23.186;2024-03-17T00:06:34;24.73;;;14.68;;
8702;SDS011;9002;42.708;23.186;2024-03-17T00:09:01;24.75;;;16.45;;
8702;SDS011;9002;42.708;23.186;2024-03-17T00:11:31;24.27;;;15.27;;
8702;SDS011;9002;42.708;23.186;2024-03-17T00:13:58;25.83;;;16.35;;
8702;SDS011;9002;42.708;23.186;2024-03-17T00:16:24;25.27;;;15.93;;
8702;SDS011;9002;42.708;23.186;2024-03-17T00:18:51;28.85;;;15.32;;
8702;SDS011;9002;42.708;23.186;2024-03-17T00:21:17;28.90;;;14.65;;
8702;SDS011;9002;42.708;23.186;2024-03-17T00:23:46;21.85;;;14.32;;
8702;SDS011;9002;42.708;23.186;2024-03-17T00:26:14;26.52;;;15.85;;
8702;SDS011;9002;42.708;23.186;2024-03-17T00:28:41;26.70;;;15.13;;
8702;SDS011;9002;42.708;23.186;2024-03-17T00:31:11;27.38;;;14.88;;
8702;SDS011;9002;42.708;23.186;2024-03-17T00:33:39;27.45;;;13.18;;
8702;SDS011;9002;42.708;23.186;2024-03-17T00:36:06;23.23;;;14.57;;
8702;SDS011;9002;42.708;23.186;2024-03-17T00:38:33;24.20;;;15.73;;
8702;SDS011;9002;42.708;23.186;2024-03-17T00:41:01;26.23;;;14.35;;
8702;SDS011;9002;42.708;23.186;2024-03-17T00:43:29;22.13;;;14.98;;
8702;SDS011;9002;42.708;23.186;2024-03-17T00:45:55;21.40;;;14.35;;
8702;SDS011;9002;42.708;23.186;2024-03-17T00:48:25;25.30;;;15.35;;
8702;SDS011;9002;42.708;23.186;2024-03-17T00:50:54;23.33;;;14.48;;
8702;SDS011;9002;42.708;23.186;2024-03-17T00:53:22;26.45;;;15.48;;
8702;SDS011;9002;42.708;23.186;2024-03-17T00:55:51;23.83;;;15.73;;
8702;SDS011;9002;42.708;23.186;2024-03-17T00:58:20;23.48;;;14.98;;
8702;SDS011;9002;42.708;23.186;2024-03-17T01:00:46;25.30;;;17.05;;
8702;SDS011;9002;42.708;23.186;2024-03-17T01:03:14;23.15;;;15.25;;
8702;SDS011;9002;42.708;23.186;2024-03-17T01:05:40;24.33;;;15.80;;
8702;SDS011;9002;42.708;23.186;2024-03-17T01:08:09;23.50;;;14.70;;
8702;SDS011;9002;42.708;23.186;2024-03-17T01:10:37;20.88;;;13.77;;
8702;SDS011;9002;42.708;23.186;2024-03-17T01:13:05;24.85;;;16.10;;
8702;SDS011;9002;42.708;23.186;2024-03-17T01:15:34;25.52;;;15.40;;
8702;SDS011;9002;42.708;23.186;2024-03-17T01:18:02;26.30;;;15.18;;
8702;SDS011;9002;42.708;23.186;2024-03-17T01:20:29;23.33;;;14.18;;
8702;SDS011;9002;42.708;23.186;2024-03-17T01:22:56;25.10;;;14.43;;
8702;SDS011;9002;42.708;23.186;2024-03-17T01:25:22;22.25;;;14.57;;
8702;SDS011;9002;42.708;23.186;2024-03-17T01:27:50;20.50;;;13.35;;
8702;SDS011;9002;42.708;23.186;2024-03-17T01:30:16;22.40;;;14.10;;
8702;SDS011;9002;42.708;23.186;2024-03-17T01:32:45;21.58;;;14.20;;
8702;SDS011;9002;42.708;23.186;2024-03-17T01:35:13;27.40;;;14.00;;
8702;SDS011;9002;42.708;23.186;2024-03-17T01:37:39;22.08;;;14.43;;
8702;SDS011;9002;42.708;23.186;2024-03-17T01:40:06;23.77;;;14.68;;
8702;SDS011;9002;42.708;23.186;2024-03-17T01:42:34;22.85;;;15.23;;
8702;SDS011;9002;42.708;23.186;2024-03-17T01:45:01;23.70;;;14.85;;
8702;SDS011;9002;42.708;23.186;2024-03-17T01:47:50;24.13;;;14.13;;
8702;SDS011;9002;42.708;23.186;2024-03-17T01:50:17;22.95;;;14.05;;
8702;SDS011;9002;42.708;23.186;2024-03-17T01:52:46;25.30;;;14.57;;
8702;SDS011;9002;42.708;23.186;2024-03-17T01:55:14;26.67;;;14.40;;
8702;SDS011;9002;42.708;23.186;2024-03-17T01:57:40;22.08;;;13.73;;
8702;SDS011;9002;42.708;23.186;2024-03-17T02:00:07;24.17;;;15.07;;
8702;SDS011;9002;42.708;23.186;2024-03-17T02:02:34;21.63;;;13.57;;
8702;SDS011;9002;42.708;23.186;2024-03-17T02:05:03;22.77;;;13.45;;
8702;SDS011;9002;42.708;23.186;2024-03-17T02:07:30;23.33;;;14.07;;
8702;SDS011;9002;42.708;23.186;2024-03-17T02:09:57;22.27;;;14.27;;
8702;SDS011;9002;42.708;23.186;2024-03-17T02:12:22;21.75;;;14.35;;
8702;SDS011;9002;42.708;23.186;2024-03-17T02:14:50;22.17;;;13.40;;
8702;SDS011;9002;42.708;23.186;2024-03-17T02:17:16;22.73;;;14.02;;
8702;SDS011;9002;42.708;23.186;2024-03-17T02:19:43;24.00;;;14.52;;
8702;SDS011;9002;42.708;23.186;2024-03-17T02:22:13;22.27;;;14.32;;
8702;SDS011;9002;42.708;23.186;2024-03-17T02:24:40;23.95;;;14.38;;
8702;SDS011;9002;42.708;23.186;2024-03-17T02:27:06;23.27;;;14.82;;
8702;SDS011;9002;42.708;23.186;2024-03-17T02:32:17;20.92;;;13.48;;
8702;SDS011;9002;42.708;23.186;2024-03-17T02:34:47;22.95;;;13.43;;
8702;SDS011;9002;42.708;23.186;2024-03-17T02:37:15;23.17;;;13.85;;
8702;SDS011;9002;42.708;23.186;2024-03-17T02:39:42;20.92;;;13.07;;
8702;SDS011;9002;42.708;23.186;2024-03-17T02:42:09;20.92;;;13.32;;
8702;SDS011;9002;42.708;23.186;2024-03-17T02:44:37;24.23;;;14.07;;
8702;SDS011;9002;42.708;23.186;2024-03-17T02:47:05;23.80;;;13.52;;
8702;SDS011;9002;42.708;23.186;2024-03-17T02:49:33;22.70;;;13.95;;
8702;SDS011;9002;42.708;23.186;2024-03-17T02:52:02;25.42;;;13.85;;
8702;SDS011;9002;42.708;23.186;2024-03-17T02:54:31;20.23;;;13.00;;
8702;SDS011;9002;42.708;23.186;2024-03-17T02:57:00;21.05;;;12.18;;
8702;SDS011;9002;42.708;23.186;2024-03-17T02:59:27;21.70;;;12.52;;
8702;SDS011;9002;42.708;23.186;2024-03-17T03:01:54;19.70;;;13.15;;
8702;SDS011;9002;42.708;23.186;2024-03-17T03:04:21;24.25;;;13.52;;
8702;SDS011;9002;42.708;23.186;2024-03-17T03:06:48;21.83;;;12.52;;
8702;SDS011;9002;42.708;23.186;2024-03-17T03:09:15;23.48;;;14.25;;
8702;SDS011;9002;42.708;23.186;2024-03-17T03:11:49;21.70;;;13.55;;
8702;SDS011;9002;42.708;23.186;2024-03-17T03:14:17;24.70;;;12.73;;
8702;SDS011;9002;42.708;23.186;2024-03-17T03:16:44;22.75;;;12.93;;
8702;SDS011;9002;42.708;23.186;2024-03-17T03:19:11;18.52;;;12.55;;
8702;SDS011;9002;42.708;23.186;2024-03-17T03:21:38;21.92;;;13.93;;
8702;SDS011;9002;42.708;23.186;2024-03-17T03:24:05;23.20;;;13.35;;
8702;SDS011;9002;42.708;23.186;2024-03-17T03:26:32;20.75;;;13.27;;
8702;SDS011;9002;42.708;23.186;2024-03-17T03:29:00;20.48;;;12.98;;
8702;SDS011;9002;42.708;23.186;2024-03-17T03:31:29;22.08;;;13.05;;
8702;SDS011;9002;42.708;23.186;2024-03-17T03:33:56;19.00;;;12.98;;
8702;SDS011;9002;42.708;23.186;2024-03-17T03:36:26;24.70;;;12.85;;
8702;SDS011;9002;42.708;23.186;2024-03-17T03:38:54;20.20;;;13.45;;
8702;SDS011;9002;42.708;23.186;2024-03-17T03:41:22;25.55;;;13.18;;
8702;SDS011;9002;42.708;23.186;2024-03-17T03:43:50;22.30;;;13.73;;
8702;SDS011;9002;42.708;23.186;2024-03-17T03:46:19;22.02;;;13.02;;
8702;SDS011;9002;42.708;23.186;2024-03-17T03:48:46;19.40;;;12.35;;
8702;SDS011;9002;42.708;23.186;2024-03-17T03:51:13;22.77;;;13.50;;
8702;SDS011;9002;42.708;23.186;2024-03-17T03:53:40;21.33;;;13.30;;
8702;SDS011;9002;42.708;23.186;2024-03-17T03:56:07;20.70;;;13.20;;
8702;SDS011;9002;42.708;23.186;2024-03-17T03:58:35;19.35;;;12.50;;
8702;SDS011;9002;42.708;23.186;2024-03-17T04:01:03;23.02;;;15.07;;
8702;SDS011;9002;42.708;23.186;2024-03-17T04:03:32;23.65;;;13.80;;
8702;SDS011;9002;42.708;23.186;2024-03-17T04:06:03;22.23;;;13.45;;
8702;SDS011;9002;42.708;23.186;2024-03-17T04:08:30;20.65;;;14.07;;
8702;SDS011;9002;42.708;23.186;2024-03-17T04:10:58;22.13;;;12.13;;
8702;SDS011;9002;42.708;23.186;2024-03-17T04:13:26;22.33;;;13.18;;
8702;SDS011;9002;42.708;23.186;2024-03-17T04:15:54;22.80;;;13.57;;
8702;SDS011;9002;42.708;23.186;2024-03-17T04:18:22;22.50;;;12.98;;
8702;SDS011;9002;42.708;23.186;2024-03-17T04:20:52;22.60;;;13.65;;
8702;SDS011;9002;42.708;23.186;2024-03-17T04:23:20;23.35;;;13.80;;
8702;SDS011;9002;42.708;23.186;2024-03-17T04:25:47;22.45;;;13.43;;
8702;SDS011;9002;42.708;23.186;2024-03-17T04:28:14;22.77;;;14.40;;
8702;SDS011;9002;42.708;23.186;2024-03-17T04:30:41;24.15;;;13.55;;
8702;SDS011;9002;42.708;23.186;2024-03-17T04:33:09;21.42;;;13.57;;
8702;SDS011;9002;42.708;23.186;2024-03-17T04:35:36;25.13;;;13.63;;
8702;SDS011;9002;42.708;23.186;2024-03-17T04:38:05;20.08;;;12.02;;
8702;SDS011;9002;42.708;23.186;2024-03-17T04:40:32;25.88;;;14.38;;
8702;SDS011;9002;42.708;23.186;2024-03-17T04:42:59;25.55;;;15.25;;
8702;SDS011;9002;42.708;23.186;2024-03-17T04:45:26;21.30;;;12.98;;
8702;SDS011;9002;42.708;23.186;2024-03-17T04:47:53;21.65;;;13.25;;
8702;SDS011;9002;42.708;23.186;2024-03-17T04:50:20;25.13;;;13.27;;
8702;SDS011;9002;42.708;23.186;2024-03-17T04:52:47;23.73;;;14.20;;
8702;SDS011;9002;42.708;23.186;2024-03-17T04:55:16;21.73;;;13.80;;
8702;SDS011;9002;42.708;23.186;2024-03-17T04:57:43;28.63;;;15.30;;
8702;SDS011;9002;42.708;23.186;2024-03-17T05:00:11;19.85;;;12.65;;
8702;SDS011;9002;42.708;23.186;2024-03-17T05:02:39;21.60;;;12.60;;
8702;SDS011;9002;42.708;23.186;2024-03-17T05:05:06;22.35;;;12.77;;
8702;SDS011;9002;42.708;23.186;2024-03-17T05:07:35;21.05;;;13.48;;
8702;SDS011;9002;42.708;23.186;2024-03-17T05:10:02;22.85;;;12.77;;
8702;SDS011;9002;42.708;23.186;2024-03-17T05:12:32;26.20;;;14.13;;
8702;SDS011;9002;42.708;23.186;2024-03-17T05:14:59;23.00;;;13.02;;
8702;SDS011;9002;42.708;23.186;2024-03-17T05:17:29;21.92;;;14.30;;
8702;SDS011;9002;42.708;23.186;2024-03-17T05:19:59;24.45;;;14.20;;
8702;SDS011;9002;42.708;23.186;2024-03-17T05:22:26;22.42;;;13.48;;
8702;SDS011;9002;42.708;23.186;2024-03-17T05:24:53;23.85;;;14.05;;
8702;SDS011;9002;42.708;23.186;2024-03-17T05:27:20;21.48;;;13.98;;
8702;SDS011;9002;42.708;23.186;2024-03-17T05:29:48;22.77;;;14.10;;
8702;SDS011;9002;42.708;23.186;2024-03-17T05:32:16;23.00;;;13.00;;
8702;SDS011;9002;42.708;23.186;2024-03-17T05:34:43;22.27;;;13.00;;
8702;SDS011;9002;42.708;23.186;2024-03-17T05:37:10;23.25;;;14.07;;
8702;SDS011;9002;42.708;23.186;2024-03-17T05:39:37;23.17;;;13.57;;
8702;SDS011;9002;42.708;23.186;2024-03-17T05:42:04;25.80;;;16.70;;
8702;SDS011;9002;42.708;23.186;2024-03-17T05:44:32;22.65;;;14.15;;
8702;SDS011;9002;42.708;23.186;2024-03-17T05:47:16;24.45;;;13.68;;
8702;SDS011;9002;42.708;23.186;2024-03-17T05:49:44;20.85;;;14.05;;
8702;SDS011;9002;42.708;23.186;2024-03-17T05:52:11;21.25;;;12.88;;
8702;SDS011;9002;42.708;23.186;2024-03-17T05:54:40;20.55;;;13.73;;
8702;SDS011;9002;42.708;23.186;2024-03-17T05:57:07;22.05;;;16.27;;
8702;SDS011;9002;42.708;23.186;2024-03-17T05:59:37;26.15;;;14.48;;
8702;SDS011;9002;42.708;23.186;2024-03-17T06:02:04;30.85;;;15.95;;
8702;SDS011;9002;42.708;23.186;2024-03-17T06:04:33;26.63;;;15.00;;
8702;SDS011;9002;42.708;23.186;2024-03-17T06:07:00;26.55;;;15.70;;
8702;SDS011;9002;42.708;23.186;2024-03-17T06:09:27;25.05;;;14.68;;
8702;SDS011;9002;42.708;23.186;2024-03-17T06:11:54;23.95;;;14.70;;
8702;SDS011;9002;42.708;23.186;2024-03-17T06:14:21;21.85;;;14.80;;
8702;SDS011;9002;42.708;23.186;2024-03-17T06:16:48;25.58;;;16.17;;
8702;SDS011;9002;42.708;23.186;2024-03-17T06:19:15;24.35;;;14.93;;
8702;SDS011;9002;42.708;23.186;2024-03-17T06:21:43;25.05;;;15.20;;
8702;SDS011;9002;42.708;23.186;2024-03-17T06:24:10;28.58;;;14.38;;
8702;SDS011;9002;42.708;23.186;2024-03-17T06:26:37;30.92;;;16.65;;
8702;SDS011;9002;42.708;23.186;2024-03-17T06:29:04;31.02;;;15.63;;
8702;SDS011;9002;42.708;23.186;2024-03-17T06:31:31;21.00;;;14.25;;
8702;SDS011;9002;42.708;23.186;2024-03-17T06:33:58;27.58;;;14.70;;
8702;SDS011;9002;42.708;23.186;2024-03-17T06:36:25;22.70;;;13.48;;
8702;SDS011;9002;42.708;23.186;2024-03-17T06:38:53;26.15;;;15.75;;
8702;SDS011;9002;42.708;23.186;2024-03-17T06:41:21;27.25;;;16.25;;
8702;SDS011;9002;42.708;23.186;2024-03-17T06:43:48;27.00;;;14.85;;
8702;SDS011;9002;42.708;23.186;2024-03-17T06:46:15;33.47;;;19.02;;
8702;SDS011;9002;42.708;23.186;2024-03-17T06:48:42;27.55;;;15.77;;
8702;SDS011;9002;42.708;23.186;2024-03-17T06:51:09;23.38;;;15.18;;
8702;SDS011;9002;42.708;23.186;2024-03-17T06:53:36;23.80;;;13.38;;
8702;SDS011;9002;42.708;23.186;2024-03-17T06:56:05;22.77;;;14.20;;
8702;SDS011;9002;42.708;23.186;2024-03-17T06:58:33;22.30;;;13.82;;
8702;SDS011;9002;42.708;23.186;2024-03-17T07:00:59;23.70;;;13.75;;
8702;SDS011;9002;42.708;23.186;2024-03-17T07:03:27;22.35;;;13.60;;
8702;SDS011;9002;42.708;23.186;2024-03-17T07:05:56;20.15;;;13.85;;
8702;SDS011;9002;42.708;23.186;2024-03-17T07:08:28;24.27;;;15.10;;
8702;SDS011;9002;42.708;23.186;2024-03-17T07:10:56;24.30;;;14.45;;
8702;SDS011;9002;42.708;23.186;2024-03-17T07:13:32;25.27;;;15.57;;
8702;SDS011;9002;42.708;23.186;2024-03-17T07:16:00;24.25;;;14.63;;
8702;SDS011;9002;42.708;23.186;2024-03-17T07:18:28;38.28;;;22.92;;
8702;SDS011;9002;42.708;23.186;2024-03-17T07:20:58;26.45;;;15.05;;
8702;SDS011;9002;42.708;23.186;2024-03-17T07:23:26;29.33;;;18.08;;
8702;SDS011;9002;42.708;23.186;2024-03-17T07:25:53;24.05;;;13.95;;
8702;SDS011;9002;42.708;23.186;2024-03-17T07:28:21;27.73;;;15.98;;
8702;SDS011;9002;42.708;23.186;2024-03-17T07:30:51;22.40;;;12.93;;
8702;SDS011;9002;42.708;23.186;2024-03-17T07:33:19;23.05;;;13.23;;
8702;SDS011;9002;42.708;23.186;2024-03-17T07:35:47;23.52;;;12.88;;
8702;SDS011;9002;42.708;23.186;2024-03-17T07:38:14;23.70;;;14.48;;
8702;SDS011;9002;42.708;23.186;2024-03-17T07:40:42;23.00;;;12.63;;
8702;SDS011;9002;42.708;23.186;2024-03-17T07:43:09;19.83;;;11.90;;
8702;SDS011;9002;42.708;23.186;2024-03-17T07:45:36;21.00;;;11.93;;
8702;SDS011;9002;42.708;23.186;2024-03-17T07:48:05;25.52;;;13.55;;
8702;SDS011;9002;42.708;23.186;2024-03-17T07:50:33;14.85;;;10.57;;
8702;SDS011;9002;42.708;23.186;2024-03-17T07:53:00;24.08;;;12.13;;
8702;SDS011;9002;42.708;23.186;2024-03-17T07:55:28;15.68;;;10.13;;
8702;SDS011;9002;42.708;23.186;2024-03-17T07:57:56;16.02;;;9.40;;
8702;SDS011;9002;42.708;23.186;2024-03-17T08:00:23;18.15;;;9.85;;
8702;SDS011;9002;42.708;23.186;2024-03-17T08:02:51;16.95;;;9.48;;
8702;SDS011;9002;42.708;23.186;2024-03-17T08:05:20;14.50;;;9.73;;
8702;SDS011;9002;42.708;23.186;2024-03-17T08:07:47;13.05;;;8.02;;
8702;SDS011;9002;42.708;23.186;2024-03-17T08:10:14;15.55;;;8.95;;
8702;SDS011;9002;42.708;23.186;2024-03-17T08:12:43;16.20;;;9.18;;
8702;SDS011;9002;42.708;23.186;2024-03-17T08:15:10;13.48;;;8.27;;
8702;SDS011;9002;42.708;23.186;2024-03-17T08:17:38;14.02;;;8.75;;
8702;SDS011;9002;42.708;23.186;2024-03-17T08:20:05;14.43;;;8.43;;
8702;SDS011;9002;42.708;23.186;2024-03-17T08:22:34;12.60;;;8.48;;
8702;SDS011;9002;42.708;23.186;2024-03-17T08:25:01;13.38;;;8.85;;
8702;SDS011;9002;42.708;23.186;2024-03-17T08:27:30;13.32;;;8.02;;
8702;SDS011;9002;42.708;23.186;2024-03-17T08:29:57;11.73;;;8.55;;
8702;SDS011;9002;42.708;23.186;2024-03-17T08:32:24;12.55;;;8.15;;
8702;SDS011;9002;42.708;23.186;2024-03-17T08:34:51;12.15;;;7.03;;
8702;SDS011;9002;42.708;23.186;2024-03-17T08:37:18;11.52;;;7.50;;
8702;SDS011;9002;42.708;23.186;2024-03-17T08:39:48;12.10;;;7.55;;
8702;SDS011;9002;42.708;23.186;2024-03-17T08:42:15;14.23;;;8.35;;
8702;SDS011;9002;42.708;23.186;2024-03-17T08:44:45;13.45;;;8.82;;
8702;SDS011;9002;42.708;23.186;2024-03-17T08:47:12;12.93;;;8.27;;
8702;SDS011;9002;42.708;23.186;2024-03-17T08:49:39;12.88;;;7.38;;
8702;SDS011;9002;42.708;23.186;2024-03-17T08:52:06;12.82;;;7.97;;
8702;SDS011;9002;42.708;23.186;2024-03-17T08:54:34;12.82;;;8.63;;
8702;SDS011;9002;42.708;23.186;2024-03-17T08:57:02;16.58;;;9.27;;
8702;SDS011;9002;42.708;23.186;2024-03-17T08:59:29;17.63;;;8.57;;
8702;SDS011;9002;42.708;23.186;2024-03-17T09:01:57;16.70;;;8.48;;
8702;SDS011;9002;42.708;23.186;2024-03-17T09:04:24;11.63;;;8.18;;
8702;SDS011;9002;42.708;23.186;2024-03-17T09:06:54;16.30;;;9.40;;
8702;SDS011;9002;42.708;23.186;2024-03-17T09:09:21;15.85;;;9.40;;
8702;SDS011;9002;42.708;23.186;2024-03-17T09:11:48;17.05;;;10.82;;
8702;SDS011;9002;42.708;23.186;2024-03-17T09:14:17;17.30;;;9.63;;
8702;SDS011;9002;42.708;23.186;2024-03-17T09:16:46;17.98;;;11.63;;
8702;SDS011;9002;42.708;23.186;2024-03-17T09:19:13;16.45;;;9.23;;
8702;SDS011;9002;42.708;23.186;2024-03-17T09:21:40;15.43;;;10.45;;
8702;SDS011;9002;42.708;23.186;2024-03-17T09:24:08;15.38;;;9.68;;
8702;SDS011;9002;42.708;23.186;2024-03-17T09:26:36;17.42;;;10.32;;
8702;SDS011;9002;42.708;23.186;2024-03-17T09:29:04;17.98;;;9.65;;
8702;SDS011;9002;42.708;23.186;2024-03-17T09:31:33;19.42;;;9.85;;
8702;SDS011;9002;42.708;23.186;2024-03-17T09:34:00;14.07;;;9.45;;
8702;SDS011;9002;42.708;23.186;2024-03-17T09:36:27;13.02;;;8.50;;
8702;SDS011;9002;42.708;23.186;2024-03-17T09:38:56;12.75;;;7.25;;
8702;SDS011;9002;42.708;23.186;2024-03-17T09:41:25;15.43;;;8.45;;
8702;SDS011;9002;42.708;23.186;2024-03-17T09:46:23;12.43;;;6.80;;
8702;SDS011;9002;42.708;23.186;2024-03-17T09:48:54;12.00;;;6.82;;
8702;SDS011;9002;42.708;23.186;2024-03-17T09:51:23;11.20;;;7.07;;
8702;SDS011;9002;42.708;23.186;2024-03-17T09:53:51;12.35;;;6.72;;
8702;SDS011;9002;42.708;23.186;2024-03-17T09:56:18;11.23;;;7.03;;
8702;SDS011;9002;42.708;23.186;2024-03-17T09:58:47;10.00;;;6.00;;
8702;SDS011;9002;42.708;23.186;2024-03-17T10:01:14;7.80;;;5.38;;
8702;SDS011;9002;42.708;23.186;2024-03-17T10:03:42;5.40;;;4.13;;
8702;SDS011;9002;42.708;23.186;2024-03-17T10:06:12;7.20;;;4.50;;
8702;SDS011;9002;42.708;23.186;2024-03-17T10:08:43;8.70;;;4.78;;
8702;SDS011;9002;42.708;23.186;2024-03-17T10:11:11;6.78;;;4.22;;
8702;SDS011;9002;42.708;23.186;2024-03-17T10:13:40;7.65;;;3.38;;
8702;SDS011;9002;42.708;23.186;2024-03-17T10:16:17;7.20;;;4.35;;
8702;SDS011;9002;42.708;23.186;2024-03-17T10:18:49;7.53;;;3.78;;
8702;SDS011;9002;42.708;23.186;2024-03-17T10:21:24;6.28;;;4.38;;
8702;SDS011;9002;42.708;23.186;2024-03-17T10:24:04;6.10;;;3.85;;
8702;SDS011;9002;42.708;23.186;2024-03-17T10:26:33;5.78;;;3.72;;
8702;SDS011;9002;42.708;23.186;2024-03-17T10:29:02;4.60;;;2.83;;
8702;SDS011;9002;42.708;23.186;2024-03-17T10:31:30;3.90;;;2.25;;
8702;SDS011;9002;42.708;23.186;2024-03-17T10:34:01;5.47;;;3.10;;
8702;SDS011;9002;42.708;23.186;2024-03-17T10:36:29;4.80;;;3.22;;
8702;SDS011;9002;42.708;23.186;2024-03-17T10:38:56;3.15;;;2.20;;
8702;SDS011;9002;42.708;23.186;2024-03-17T10:41:23;3.35;;;2.17;;
8702;SDS011;9002;42.708;23.186;2024-03-17T10:43:54;4.93;;;2.65;;
8702;SDS011;9002;42.708;23.186;2024-03-17T10:46:21;3.97;;;2.65;;
8702;SDS011;9002;42.708;23.186;2024-03-17T10:48:51;4.18;;;2.35;;
8702;SDS011;9002;42.708;23.186;2024-03-17T10:51:20;6.35;;;3.83;;
8702;SDS011;9002;42.708;23.186;2024-03-17T10:53:48;6.10;;;3.50;;
8702;SDS011;9002;42.708;23.186;2024-03-17T10:56:19;6.72;;;2.63;;
8702;SDS011;9002;42.708;23.186;2024-03-17T10:58:48;5.03;;;2.63;;
8702;SDS011;9002;42.708;23.186;2024-03-17T11:01:22;3.85;;;2.45;;
8702;SDS011;9002;42.708;23.186;2024-03-17T11:03:50;4.45;;;2.80;;
8702;SDS011;9002;42.708;23.186;2024-03-17T11:06:19;4.45;;;2.08;;
8702;SDS011;9002;42.708;23.186;2024-03-17T11:08:46;5.13;;;3.10;;
8702;SDS011;9002;42.708;23.186;2024-03-17T11:11:15;4.53;;;3.03;;
8702;SDS011;9002;42.708;23.186;2024-03-17T11:14:15;5.30;;;3.85;;
8702;SDS011;9002;42.708;23.186;2024-03-17T11:16:43;5.10;;;3.15;;
8702;SDS011;9002;42.708;23.186;2024-03-17T11:19:12;6.28;;;3.75;;
8702;SDS011;9002;42.708;23.186;2024-03-17T11:21:41;8.18;;;4.03;;
8702;SDS011;9002;42.708;23.186;2024-03-17T11:24:17;6.88;;;4.15;;
8702;SDS011;9002;42.708;23.186;2024-03-17T11:26:47;6.68;;;3.60;;
8702;SDS011;9002;42.708;23.186;2024-03-17T11:29:26;7.90;;;5.38;;
8702;SDS011;9002;42.708;23.186;2024-03-17T11:31:53;4.95;;;3.33;;
8702;SDS011;9002;42.708;23.186;2024-03-17T11:34:28;6.32;;;2.85;;
8702;SDS011;9002;42.708;23.186;2024-03-17T11:36:56;5.88;;;2.88;;
8702;SDS011;9002;42.708;23.186;2024-03-17T11:42:13;4.65;;;3.33;;
8702;SDS011;9002;42.708;23.186;2024-03-17T11:44:42;4.03;;;2.60;;
8702;SDS011;9002;42.708;23.186;2024-03-17T11:47:08;4.97;;;2.97;;
8702;SDS011;9002;42.708;23.186;2024-03-17T11:49:36;4.38;;;2.30;;
8702;SDS011;9002;42.708;23.186;2024-03-17T11:52:03;5.95;;;2.72;;
8702;SDS011;9002;42.708;23.186;2024-03-17T11:54:32;4.22;;;3.00;;
8702;SDS011;9002;42.708;23.186;2024-03-17T11:57:00;5.38;;;3.15;;
8702;SDS011;9002;42.708;23.186;2024-03-17T11:59:30;5.72;;;3.15;;
8702;SDS011;9002;42.708;23.186;2024-03-17T12:01:56;6.13;;;3.05;;
8702;SDS011;9002;42.708;23.186;2024-03-17T12:04:24;4.32;;;3.00;;
8702;SDS011;9002;42.708;23.186;2024-03-17T12:06:51;6.50;;;3.15;;
8702;SDS011;9002;42.708;23.186;2024-03-17T12:09:19;4.45;;;3.13;;
8702;SDS011;9002;42.708;23.186;2024-03-17T12:11:46;4.30;;;2.75;;
8702;SDS011;9002;42.708;23.186;2024-03-17T12:14:15;6.35;;;4.38;;
8702;SDS011;9002;42.708;23.186;2024-03-17T12:16:52;5.72;;;3.28;;
8702;SDS011;9002;42.708;23.186;2024-03-17T12:19:22;4.95;;;3.20;;
8702;SDS011;9002;42.708;23.186;2024-03-17T12:21:49;5.25;;;2.83;;
8702;SDS011;9002;42.708;23.186;2024-03-17T12:24:18;5.47;;;3.50;;
8702;SDS011;9002;42.708;23.186;2024-03-17T12:29:22;5.28;;;3.47;;
8702;SDS011;9002;42.708;23.186;2024-03-17T12:31:52;6.32;;;3.33;;
8702;SDS011;9002;42.708;23.186;2024-03-17T12:34:18;5.95;;;4.40;;
8702;SDS011;9002;42.708;23.186;2024-03-17T12:36:46;6.57;;;4.72;;
8702;SDS011;9002;42.708;23.186;2024-03-17T12:39:16;6.60;;;4.30;;
8702;SDS011;9002;42.708;23.186;2024-03-17T12:41:45;5.43;;;3.92;;
8702;SDS011;9002;42.708;23.186;2024-03-17T12:44:23;5.35;;;3.28;;
8702;SDS011;9002;42.708;23.186;2024-03-17T12:46:55;8.30;;;4.15;;
8702;SDS011;9002;42.708;23.186;2024-03-17T12:49:22;7.13;;;4.15;;
8702;SDS011;9002;42.708;23.186;2024-03-17T12:51:51;7.35;;;3.85;;
8702;SDS011;9002;42.708;23.186;2024-03-17T12:54:19;6.47;;;4.70;;
8702;SDS011;9002;42.708;23.186;2024-03-17T12:56:51;6.00;;;4.60;;
8702;SDS011;9002;42.708;23.186;2024-03-17T12:59:46;7.57;;;4.78;;
8702;SDS011;9002;42.708;23.186;2024-03-17T13:02:32;7.65;;;4.43;;
8702;SDS011;9002;42.708;23.186;2024-03-17T13:07:48;6.53;;;3.72;;
8702;SDS011;9002;42.708;23.186;2024-03-17T13:10:16;6.22;;;3.88;;
8702;SDS011;9002;42.708;23.186;2024-03-17T13:12:45;6.70;;;4.32;;
8702;SDS011;9002;42.708;23.186;2024-03-17T13:15:14;7.65;;;4.25;;
8702;SDS011;9002;42.708;23.186;2024-03-17T13:17:43;5.82;;;4.47;;
8702;SDS011;9002;42.708;23.186;2024-03-17T13:20:12;8.55;;;5.47;;
8702;SDS011;9002;42.708;23.186;2024-03-17T13:22:41;8.60;;;5.07;;
8702;SDS011;9002;42.708;23.186;2024-03-17T13:25:12;7.82;;;5.00;;
8702;SDS011;9002;42.708;23.186;2024-03-17T13:30:10;9.35;;;5.57;;
8702;SDS011;9002;42.708;23.186;2024-03-17T13:32:41;7.75;;;4.95;;
8702;SDS011;9002;42.708;23.186;2024-03-17T13:35:14;7.97;;;5.25;;
8702;SDS011;9002;42.708;23.186;2024-03-17T13:37:42;7.43;;;5.55;;
8702;SDS011;9002;42.708;23.186;2024-03-17T13:40:10;7.65;;;5.10;;
8702;SDS011;9002;42.708;23.186;2024-03-17T13:42:41;7.50;;;5.22;;
8702;SDS011;9002;42.708;23.186;2024-03-17T13:45:10;9.98;;;5.85;;
8702;SDS011;9002;42.708;23.186;2024-03-17T13:47:38;8.77;;;6.22;;
8702;SDS011;9002;42.708;23.186;2024-03-17T13:50:05;8.90;;;4.95;;
8702;SDS011;9002;42.708;23.186;2024-03-17T13:52:37;7.88;;;5.38;;
8702;SDS011;9002;42.708;23.186;2024-03-17T13:55:05;7.85;;;5.60;;
8702;SDS011;9002;42.708;23.186;2024-03-17T13:57:33;8.82;;;6.20;;
8702;SDS011;9002;42.708;23.186;2024-03-17T14:00:00;8.70;;;5.40;;
8702;SDS011;9002;42.708;23.186;2024-03-17T14:02:36;8.30;;;5.53;;
8702;SDS011;9002;42.708;23.186;2024-03-17T14:05:04;8.20;;;4.95;;
8702;SDS011;9002;42.708;23.186;2024-03-17T14:07:32;7.43;;;4.63;;
8702;SDS011;9002;42.708;23.186;2024-03-17T14:10:01;8.27;;;5.10;;
8702;SDS011;9002;42.708;23.186;2024-03-17T14:12:29;8.75;;;5.18;;
8702;SDS011;9002;42.708;23.186;2024-03-17T14:14:56;7.57;;;4.72;;
8702;SDS011;9002;42.708;23.186;2024-03-17T14:17:23;7.95;;;4.53;;
8702;SDS011;9002;42.708;23.186;2024-03-17T14:19:51;8.02;;;4.80;;
8702;SDS011;9002;42.708;23.186;2024-03-17T14:22:18;8.07;;;4.50;;
8702;SDS011;9002;42.708;23.186;2024-03-17T14:24:45;8.10;;;5.18;;
8702;SDS011;9002;42.708;23.186;2024-03-17T14:27:13;6.30;;;4.82;;
8702;SDS011;9002;42.708;23.186;2024-03-17T14:29:41;8.02;;;5.45;;
8702;SDS011;9002;42.708;23.186;2024-03-17T14:32:08;8.88;;;5.20;;
8702;SDS011;9002;42.708;23.186;2024-03-17T14:34:35;9.23;;;5.70;;
8702;SDS011;9002;42.708;23.186;2024-03-17T14:37:03;9.85;;;6.00;;
8702;SDS011;9002;42.708;23.186;2024-03-17T14:39:31;8.90;;;5.65;;
8702;SDS011;9002;42.708;23.186;2024-03-17T14:41:58;7.72;;;5.25;;
8702;SDS011;9002;42.708;23.186;2024-03-17T14:44:26;8.73;;;5.35;;
8702;SDS011;9002;42.708;23.186;2024-03-17T14:46:53;8.82;;;5.65;;
8702;SDS011;9002;42.708;23.186;2024-03-17T14:49:20;8.23;;;5.22;;
8702;SDS011;9002;42.708;23.186;2024-03-17T14:51:48;8.98;;;5.32;;
8702;SDS011;9002;42.708;23.186;2024-03-17T14:54:15;10.05;;;5.05;;
8702;SDS011;9002;42.708;23.186;2024-03-17T14:56:42;8.65;;;5.55;;
8702;SDS011;9002;42.708;23.186;2024-03-17T14:59:10;9.68;;;6.15;;
8702;SDS011;9002;42.708;23.186;2024-03-17T15:01:39;11.23;;;6.07;;
8702;SDS011;9002;42.708;23.186;2024-03-17T15:04:06;9.55;;;5.78;;
8702;SDS011;9002;42.708;23.186;2024-03-17T15:06:33;10.80;;;5.93;;
8702;SDS011;9002;42.708;23.186;2024-03-17T15:09:01;8.15;;;5.15;;